Time;durP1;ratioP1;P1;durP2;ratioP2;P2;SDS_P1;SDS_P2;PMS_P1;PMS_P2;Temp;Humidity;BMP_temperature;BMP_pressure;BME280_temperature;BME280_humidity;BME280_pressure;Samples;Min_cycle;Max_cycle;Signal;HPM_P1;HPM_P2
2021/04/07 00:00:14;;;;;;;11.30;2.13;;;1.80;99.90;;;;;;5012426;28;20481;-81
2021/04/07 00:02:41;;;;;;;8.83;1.93;;;1.80;99.90;;;;;;5010894;28;20876;-81
2021/04/07 00:05:13;;;;;;;8.03;2.00;;;1.80;99.90;;;;;;5010735;28;20941;-81
2021/04/07 00:07:43;;;;;;;11.20;1.93;;;1.70;99.90;;;;;;5010655;28;20484;-81
2021/04/07 00:10:14;;;;;;;12.00;1.83;;;1.80;99.90;;;;;;5010603;28;20559;-81
2021/04/07 00:12:42;;;;;;;11.30;2.00;;;1.80;99.90;;;;;;5010685;28;20885;-82
2021/04/07 00:15:13;;;;;;;11.57;1.90;;;1.80;99.90;;;;;;5012147;28;20505;-83
2021/04/07 00:17:41;;;;;;;7.70;1.30;;;1.80;99.90;;;;;;5013173;28;20477;-81
2021/04/07 00:20:12;;;;;;;8.57;2.00;;;1.80;99.90;;;;;;5009635;28;20477;-81
2021/04/07 00:22:41;;;;;;;13.20;2.27;;;1.80;99.90;;;;;;5010782;28;20473;-81
2021/04/07 00:25:10;;;;;;;7.00;1.70;;;1.70;99.90;;;;;;5031509;28;20465;-81
2021/04/07 00:27:40;;;;;;;10.30;1.90;;;1.90;99.90;;;;;;5029695;28;20484;-81
2021/04/07 00:30:10;;;;;;;10.43;1.67;;;1.80;99.90;;;;;;5029581;28;20526;-82
2021/04/07 00:32:38;;;;;;;7.93;1.70;;;1.70;99.90;;;;;;5030972;28;20479;-83
2021/04/07 00:35:08;;;;;;;11.33;1.70;;;1.70;99.90;;;;;;5032199;28;20470;-81
2021/04/07 00:37:37;;;;;;;11.17;1.77;;;1.60;99.90;;;;;;5029811;28;20640;-81
2021/04/07 00:40:08;;;;;;;7.50;1.70;;;1.60;99.90;;;;;;5028580;28;20476;-82
2021/04/07 00:42:36;;;;;;;10.63;2.10;;;1.60;99.90;;;;;;5013684;28;20477;-81
2021/04/07 00:45:05;;;;;;;7.87;2.00;;;1.60;99.90;;;;;;5010095;28;20539;-81
2021/04/07 00:47:33;;;;;;;13.00;1.87;;;1.60;99.90;;;;;;5004762;28;20468;-83
2021/04/07 00:50:00;;;;;;;10.60;2.30;;;1.60;99.90;;;;;;5009428;28;20508;-83
2021/04/07 00:52:29;;;;;;;8.17;1.90;;;1.60;99.90;;;;;;5002122;28;20556;-81
2021/04/07 00:54:56;;;;;;;9.47;2.10;;;1.50;99.90;;;;;;5008756;28;20473;-81
2021/04/07 00:57:25;;;;;;;10.73;2.37;;;1.50;99.90;;;;;;5008878;28;20592;-82
2021/04/07 00:59:53;;;;;;;10.77;2.33;;;1.40;99.90;;;;;;5009503;28;20468;-81
2021/04/07 01:02:22;;;;;;;10.23;2.63;;;1.40;99.90;;;;;;5009564;28;20894;-82
2021/04/07 01:04:52;;;;;;;10.13;1.77;;;1.40;99.90;;;;;;5008825;28;20476;-81
2021/04/07 01:07:20;;;;;;;11.37;2.97;;;1.40;99.90;;;;;;5010552;28;20472;-83
2021/04/07 01:09:47;;;;;;;9.50;2.17;;;1.40;99.90;;;;;;5011135;28;21073;-81
2021/04/07 01:12:15;;;;;;;8.03;2.10;;;1.40;99.90;;;;;;5009371;28;20491;-81
2021/04/07 01:14:43;;;;;;;9.07;1.77;;;1.40;99.90;;;;;;5009906;28;20480;-81
2021/04/07 01:17:11;;;;;;;11.67;2.17;;;1.40;99.90;;;;;;5009143;28;20551;-81
2021/04/07 01:19:39;;;;;;;8.37;1.97;;;1.40;99.90;;;;;;5008765;28;20679;-83
2021/04/07 01:22:06;;;;;;;10.13;1.90;;;1.40;99.90;;;;;;5009165;28;20508;-81
2021/04/07 01:24:36;;;;;;;13.40;2.57;;;1.50;99.90;;;;;;5011484;28;20485;-83
2021/04/07 01:27:03;;;;;;;9.80;2.10;;;1.50;99.90;;;;;;5032341;28;21176;-83
2021/04/07 01:29:31;;;;;;;11.83;2.43;;;1.60;99.90;;;;;;5028781;28;20868;-81
2021/04/07 01:31:59;;;;;;;7.13;2.13;;;1.60;99.90;;;;;;5028343;28;20554;-81
2021/04/07 01:34:28;;;;;;;13.63;2.13;;;1.60;99.90;;;;;;5029330;28;20477;-81
2021/04/07 01:36:57;;;;;;;7.83;2.27;;;1.60;99.90;;;;;;5028995;28;20546;-82
2021/04/07 01:39:26;;;;;;;11.63;2.40;;;1.60;99.90;;;;;;5029078;28;20496;-83
2021/04/07 01:41:55;;;;;;;12.07;2.73;;;1.70;99.90;;;;;;5009285;28;20539;-83
2021/04/07 01:44:24;;;;;;;7.97;1.80;;;1.70;99.90;;;;;;5009125;28;20478;-81
2021/04/07 01:46:52;;;;;;;13.93;2.47;;;1.70;99.90;;;;;;5003199;28;20480;-83
2021/04/07 01:49:22;;;;;;;10.20;2.30;;;1.70;99.90;;;;;;5008436;28;20480;-81
2021/04/07 01:51:49;;;;;;;12.30;2.23;;;1.70;99.90;;;;;;5008866;28;20475;-81
2021/04/07 01:54:16;;;;;;;11.77;2.80;;;1.70;99.90;;;;;;4992942;28;20555;-81
2021/04/07 01:56:48;;;;;;;9.33;2.40;;;1.70;99.90;;;;;;5007308;28;20486;-81
2021/04/07 01:59:21;;;;;;;8.97;2.00;;;1.60;99.90;;;;;;5009569;28;20485;-82
2021/04/07 02:01:49;;;;;;;9.53;2.27;;;1.60;99.90;;;;;;5012709;28;20547;-82
2021/04/07 02:04:17;;;;;;;13.07;2.13;;;1.50;99.90;;;;;;5013558;28;20486;-82
2021/04/07 02:06:45;;;;;;;8.17;2.07;;;1.50;99.90;;;;;;4995523;28;20549;-82
2021/04/07 02:09:13;;;;;;;10.00;1.90;;;1.50;99.90;;;;;;5013353;28;20977;-81
2021/04/07 02:11:41;;;;;;;8.33;2.00;;;1.40;99.90;;;;;;5012228;28;20559;-82
2021/04/07 02:14:10;;;;;;;12.33;2.60;;;1.40;99.90;;;;;;5013496;28;20476;-82
2021/04/07 02:16:38;;;;;;;12.20;2.03;;;1.40;99.90;;;;;;5008270;28;20831;-83
2021/04/07 02:19:08;;;;;;;11.10;2.20;;;1.40;99.90;;;;;;5012706;28;20484;-80
2021/04/07 02:21:35;;;;;;;14.17;2.57;;;1.30;99.90;;;;;;5010793;28;20477;-82
2021/04/07 02:24:03;;;;;;;9.27;2.50;;;1.40;99.90;;;;;;5009542;28;20553;-81
2021/04/07 02:26:31;;;;;;;12.77;2.20;;;1.40;99.90;;;;;;5030632;28;20472;-81
2021/04/07 02:28:59;;;;;;;9.57;2.10;;;1.40;99.90;;;;;;5012880;28;21008;-81
2021/04/07 02:31:26;;;;;;;10.40;2.53;;;1.30;99.90;;;;;;5026088;28;20476;-82
2021/04/07 02:33:55;;;;;;;8.13;2.20;;;1.30;99.90;;;;;;5013849;28;21000;-83
2021/04/07 02:36:22;;;;;;;12.30;2.20;;;1.30;99.90;;;;;;5029414;28;20524;-82
2021/04/07 02:38:49;;;;;;;15.23;2.73;;;1.30;99.90;;;;;;5007373;28;20484;-83
2021/04/07 02:41:16;;;;;;;6.90;1.90;;;1.20;99.90;;;;;;5009672;28;20477;-81
2021/04/07 02:43:44;;;;;;;11.77;2.37;;;1.20;99.90;;;;;;5011598;28;20476;-82
2021/04/07 02:46:12;;;;;;;14.13;2.50;;;1.20;99.90;;;;;;5011266;28;20472;-83
2021/04/07 02:48:39;;;;;;;13.83;2.47;;;1.20;99.90;;;;;;5012908;28;20997;-83
2021/04/07 02:51:08;;;;;;;9.97;2.60;;;1.20;99.90;;;;;;5011580;28;20611;-83
2021/04/07 02:53:35;;;;;;;15.03;2.73;;;1.20;99.90;;;;;;5014355;28;20477;-83
2021/04/07 02:56:02;;;;;;;11.43;2.60;;;1.20;99.90;;;;;;5014127;28;20481;-81
2021/04/07 02:58:30;;;;;;;10.60;2.10;;;1.20;99.90;;;;;;5026835;28;20979;-82
2021/04/07 03:00:57;;;;;;;4.80;1.53;;;1.10;99.90;;;;;;5011010;28;20477;-81
2021/04/07 03:03:25;;;;;;;7.13;1.80;;;1.20;99.90;;;;;;5012074;28;20486;-81
2021/04/07 03:05:53;;;;;;;8.63;1.90;;;1.10;99.90;;;;;;5012440;28;20485;-82
2021/04/07 03:08:21;;;;;;;12.03;2.07;;;1.10;99.90;;;;;;5012249;28;20485;-82
2021/04/07 03:10:48;;;;;;;11.93;2.77;;;1.10;99.90;;;;;;5012286;28;20490;-83
2021/04/07 03:13:16;;;;;;;7.80;1.90;;;1.10;99.90;;;;;;5011008;28;20515;-81
2021/04/07 03:15:43;;;;;;;8.40;2.20;;;1.10;99.90;;;;;;5011967;28;20507;-81
2021/04/07 03:18:11;;;;;;;10.80;2.07;;;1.10;99.90;;;;;;5026376;28;20479;-82
2021/04/07 03:20:39;;;;;;;12.40;2.27;;;1.10;99.90;;;;;;5010958;28;20658;-82
2021/04/07 03:23:07;;;;;;;11.83;1.97;;;1.10;99.90;;;;;;5011947;28;20480;-81
2021/04/07 03:25:35;;;;;;;12.47;2.30;;;1.10;99.90;;;;;;5021991;28;20484;-81
2021/04/07 03:28:03;;;;;;;10.47;2.13;;;1.10;99.90;;;;;;5032484;28;20463;-83
2021/04/07 03:30:48;;;;;;;10.03;2.60;;;1.10;99.90;;;;;;5016214;28;21055;-82
2021/04/07 03:33:16;;;;;;;11.10;2.47;;;1.10;99.90;;;;;;4991514;28;20818;-81
2021/04/07 03:35:43;;;;;;;7.07;2.63;;;1.10;99.90;;;;;;4997606;28;20511;-81
2021/04/07 03:38:11;;;;;;;12.93;2.47;;;1.10;99.90;;;;;;5023880;28;20551;-81
2021/04/07 03:40:40;;;;;;;12.23;2.80;;;1.10;99.90;;;;;;5003502;28;20468;-81
2021/04/07 03:43:09;;;;;;;7.93;2.03;;;1.10;99.90;;;;;;5007458;28;20476;-82
2021/04/07 03:45:37;;;;;;;9.23;2.60;;;1.00;99.90;;;;;;5024066;28;20666;-82
2021/04/07 03:48:05;;;;;;;11.63;2.57;;;1.10;99.90;;;;;;5032357;28;20484;-81
2021/04/07 03:50:33;;;;;;;15.20;2.80;;;1.00;99.90;;;;;;5029434;28;21063;-83
2021/04/07 03:53:00;;;;;;;11.17;2.70;;;1.00;99.90;;;;;;5029213;28;20480;-82
2021/04/07 03:55:27;;;;;;;7.87;2.40;;;1.00;99.90;;;;;;5029290;28;20830;-82
2021/04/07 03:57:56;;;;;;;9.93;2.67;;;1.00;99.90;;;;;;5025239;28;20479;-82
2021/04/07 04:00:24;;;;;;;9.93;2.60;;;1.00;99.90;;;;;;5028820;28;20475;-82
2021/04/07 04:02:51;;;;;;;8.40;2.60;;;1.00;99.90;;;;;;5030312;28;20481;-83
2021/04/07 04:05:19;;;;;;;11.67;2.77;;;1.00;99.90;;;;;;5031402;28;20567;-81
2021/04/07 04:07:46;;;;;;;11.73;2.70;;;1.00;99.90;;;;;;5029393;28;20484;-81
2021/04/07 04:10:15;;;;;;;11.17;2.60;;;0.90;99.90;;;;;;5029308;28;20483;-81
2021/04/07 04:12:42;;;;;;;8.43;2.50;;;0.90;99.90;;;;;;5009026;28;20481;-82
2021/04/07 04:15:13;;;;;;;13.83;2.87;;;0.90;99.90;;;;;;5022346;28;20471;-82
2021/04/07 04:17:43;;;;;;;12.63;2.77;;;0.90;99.90;;;;;;5009326;28;20473;-82
2021/04/07 04:20:12;;;;;;;8.53;2.10;;;0.90;99.90;;;;;;5025269;28;20464;-82
2021/04/07 04:22:41;;;;;;;13.83;2.83;;;0.90;99.90;;;;;;5010978;28;20476;-81
2021/04/07 04:25:13;;;;;;;9.53;2.43;;;0.90;99.90;;;;;;5009554;28;20881;-81
2021/04/07 04:27:40;;;;;;;12.07;2.63;;;1.00;99.90;;;;;;5009920;28;20476;-81
2021/04/07 04:30:12;;;;;;;10.97;2.27;;;0.90;99.90;;;;;;5009736;28;20509;-81
2021/04/07 04:32:40;;;;;;;13.07;3.10;;;0.90;99.90;;;;;;5007301;28;20539;-82
2021/04/07 04:35:10;;;;;;;13.53;3.10;;;0.90;99.90;;;;;;5010746;28;20472;-81
2021/04/07 04:37:38;;;;;;;8.73;2.50;;;0.90;99.90;;;;;;5008274;28;20556;-84
2021/04/07 04:40:08;;;;;;;11.07;2.53;;;0.90;99.90;;;;;;5012114;28;20473;-83
2021/04/07 04:42:36;;;;;;;9.17;3.23;;;0.90;99.90;;;;;;5012308;28;20484;-81
2021/04/07 04:45:05;;;;;;;14.80;3.27;;;1.00;99.90;;;;;;5008655;28;20477;-81
2021/04/07 04:47:34;;;;;;;8.73;2.87;;;0.90;99.90;;;;;;5010184;28;20477;-81
2021/04/07 04:50:02;;;;;;;8.93;2.17;;;0.90;99.90;;;;;;5008686;28;21291;-82
2021/04/07 04:52:29;;;;;;;10.37;2.80;;;0.90;99.90;;;;;;5009874;28;20504;-83
2021/04/07 04:55:03;;;;;;;10.27;2.40;;;0.90;99.90;;;;;;5020982;28;20495;-84
2021/04/07 04:57:32;;;;;;;12.07;2.67;;;0.90;99.90;;;;;;5023150;28;21057;-81
2021/04/07 04:59:59;;;;;;;14.87;3.83;;;1.00;99.90;;;;;;5007489;28;21231;-81
2021/04/07 05:02:27;;;;;;;8.00;2.70;;;1.00;99.90;;;;;;5002337;28;20484;-81
2021/04/07 05:04:55;;;;;;;11.07;3.30;;;1.00;99.90;;;;;;5009921;28;20560;-81
2021/04/07 05:07:23;;;;;;;12.10;3.03;;;1.00;99.90;;;;;;5009738;28;20535;-82
2021/04/07 05:09:50;;;;;;;8.03;2.60;;;1.00;99.90;;;;;;5024676;28;20485;-82
2021/04/07 05:12:17;;;;;;;11.77;2.73;;;1.00;99.90;;;;;;5009483;28;20484;-82
2021/04/07 05:14:48;;;;;;;12.97;3.10;;;1.00;99.90;;;;;;5010426;28;20908;-81
2021/04/07 05:17:16;;;;;;;16.53;3.40;;;1.00;99.90;;;;;;5009668;28;20588;-81
2021/04/07 05:19:44;;;;;;;16.50;3.20;;;1.00;99.90;;;;;;5023835;28;20892;-82
2021/04/07 05:22:12;;;;;;;7.67;2.60;;;1.10;99.90;;;;;;5009025;28;21058;-81
2021/04/07 05:24:39;;;;;;;8.27;2.77;;;1.10;99.90;;;;;;5011095;28;20991;-82
2021/04/07 05:27:07;;;;;;;10.57;2.87;;;1.20;99.90;;;;;;5029139;28;20533;-81
2021/04/07 05:29:35;;;;;;;8.40;2.90;;;1.10;99.90;;;;;;5029296;28;20488;-84
2021/04/07 05:32:02;;;;;;;8.77;2.80;;;1.20;99.90;;;;;;5009572;28;20476;-83
2021/04/07 05:34:32;;;;;;;14.27;3.33;;;1.20;99.90;;;;;;5003952;28;20559;-82
2021/04/07 05:36:59;;;;;;;10.53;3.00;;;1.20;99.90;;;;;;5005977;28;20569;-83
2021/04/07 05:39:28;;;;;;;10.50;2.57;;;1.20;99.90;;;;;;5001189;28;20477;-82
2021/04/07 05:41:55;;;;;;;9.93;3.60;;;1.20;99.90;;;;;;5012122;28;21007;-82
2021/04/07 05:44:23;;;;;;;6.47;2.53;;;1.10;99.90;;;;;;5009091;28;20992;-84
2021/04/07 05:46:50;;;;;;;7.80;2.90;;;1.20;99.90;;;;;;5009285;28;21069;-83
2021/04/07 05:49:18;;;;;;;12.37;3.07;;;1.20;99.90;;;;;;5026424;28;20481;-83
2021/04/07 05:51:45;;;;;;;8.80;2.87;;;1.20;99.90;;;;;;5007675;28;21193;-82
2021/04/07 05:54:12;;;;;;;11.47;2.97;;;1.30;99.90;;;;;;5007720;28;20481;-81
2021/04/07 05:56:41;;;;;;;10.97;2.80;;;1.20;99.90;;;;;;5022209;28;20481;-83
2021/04/07 05:59:08;;;;;;;9.10;2.87;;;1.20;99.90;;;;;;5008291;28;20563;-82
2021/04/07 06:01:35;;;;;;;8.13;2.43;;;1.30;99.90;;;;;;5007169;28;20565;-84
2021/04/07 06:04:03;;;;;;;12.03;3.70;;;1.30;99.90;;;;;;5025122;28;20510;-84
2021/04/07 06:06:30;;;;;;;8.37;2.70;;;1.30;99.90;;;;;;5012319;28;20884;-82
2021/04/07 06:08:59;;;;;;;9.97;3.23;;;1.30;99.90;;;;;;5023487;28;20472;-82
2021/04/07 06:11:27;;;;;;;8.93;2.60;;;1.30;99.90;;;;;;5008420;28;20493;-82
2021/04/07 06:13:56;;;;;;;9.13;3.20;;;1.30;99.90;;;;;;5009235;28;20531;-83
2021/04/07 06:16:23;;;;;;;7.73;3.23;;;1.40;99.90;;;;;;5008843;28;20524;-83
2021/04/07 06:18:52;;;;;;;6.73;2.90;;;1.40;99.90;;;;;;5008913;28;20481;-83
2021/04/07 06:21:19;;;;;;;7.80;3.30;;;1.40;99.90;;;;;;5009571;28;20721;-83
2021/04/07 06:23:47;;;;;;;5.70;3.00;;;1.30;99.90;;;;;;5012865;28;20872;-84
2021/04/07 06:26:14;;;;;;;8.10;3.23;;;1.30;99.90;;;;;;5022689;28;20534;-83
2021/04/07 06:28:42;;;;;;;10.97;3.17;;;1.30;99.90;;;;;;5006055;28;20544;-82
2021/04/07 06:31:11;;;;;;;8.10;2.67;;;1.30;99.90;;;;;;5004386;28;20539;-82
2021/04/07 06:33:39;;;;;;;6.13;2.87;;;1.30;99.90;;;;;;5010376;28;20490;-81
2021/04/07 06:36:09;;;;;;;10.97;2.90;;;1.30;99.90;;;;;;5008386;28;20534;-82
2021/04/07 06:38:39;;;;;;;8.90;2.90;;;1.30;99.90;;;;;;5007781;28;20480;-83
2021/04/07 06:41:09;;;;;;;7.40;2.70;;;1.40;99.90;;;;;;5008184;28;20983;-82
2021/04/07 06:43:37;;;;;;;7.07;2.50;;;1.40;99.90;;;;;;5008067;28;20476;-82
2021/04/07 06:46:08;;;;;;;7.00;2.97;;;1.40;99.90;;;;;;5005561;28;20476;-81
2021/04/07 06:48:39;;;;;;;8.47;2.70;;;1.40;99.90;;;;;;5010189;28;20469;-81
2021/04/07 06:51:06;;;;;;;9.20;3.13;;;1.50;99.90;;;;;;5021608;28;20510;-81
2021/04/07 06:53:35;;;;;;;10.57;3.37;;;1.50;99.90;;;;;;5021406;28;20469;-81
2021/04/07 06:56:08;;;;;;;7.27;3.20;;;1.60;99.90;;;;;;5011070;28;20474;-82
2021/04/07 06:58:37;;;;;;;13.70;3.23;;;1.60;99.90;;;;;;5000335;28;20485;-82
2021/04/07 07:01:08;;;;;;;7.77;3.13;;;1.60;99.90;;;;;;4973620;28;20488;-81
2021/04/07 07:03:37;;;;;;;6.30;2.87;;;1.60;99.90;;;;;;5003527;28;20546;-82
2021/04/07 07:06:06;;;;;;;8.70;3.13;;;1.60;99.90;;;;;;5009676;28;20574;-82
2021/04/07 07:08:41;;;;;;;11.67;3.43;;;1.70;99.90;;;;;;5012484;28;20487;-81
2021/04/07 07:11:11;;;;;;;9.10;3.10;;;1.70;99.90;;;;;;5006053;28;20838;-81
2021/04/07 07:13:39;;;;;;;7.03;3.00;;;1.80;99.90;;;;;;5003853;28;20520;-82
2021/04/07 07:16:08;;;;;;;7.63;2.90;;;1.80;99.90;;;;;;5006425;28;20476;-81
2021/04/07 07:18:35;;;;;;;9.73;2.90;;;1.70;99.90;;;;;;5012798;28;20489;-82
2021/04/07 07:21:15;;;;;;;5.00;3.33;;;1.70;99.90;;;;;;5011329;28;20902;-81
2021/04/07 07:23:47;;;;;;;7.80;3.10;;;1.70;99.90;;;;;;5011529;28;20483;-81
2021/04/07 07:26:16;;;;;;;5.27;2.83;;;1.70;99.90;;;;;;5004157;28;20511;-81
2021/04/07 07:28:47;;;;;;;5.27;2.70;;;1.80;99.90;;;;;;5005584;28;20481;-81
2021/04/07 07:31:19;;;;;;;7.17;3.00;;;1.70;99.90;;;;;;5001049;28;20491;-81
2021/04/07 07:33:47;;;;;;;6.40;3.27;;;1.80;99.90;;;;;;5007795;28;20477;-81
2021/04/07 07:36:16;;;;;;;5.67;3.20;;;1.80;99.90;;;;;;5009601;28;20524;-81
2021/04/07 07:38:51;;;;;;;5.50;3.07;;;1.90;99.90;;;;;;5011216;28;20494;-81
2021/04/07 07:41:22;;;;;;;7.47;2.83;;;2.00;99.90;;;;;;5008012;28;20738;-83
2021/04/07 07:43:50;;;;;;;7.83;2.97;;;2.00;99.90;;;;;;5011170;28;20568;-81
2021/04/07 07:46:22;;;;;;;8.67;3.10;;;2.00;99.90;;;;;;5007075;28;20578;-81
2021/04/07 07:48:50;;;;;;;6.97;3.23;;;2.10;99.90;;;;;;5009033;28;20477;-81
2021/04/07 07:51:20;;;;;;;9.33;3.33;;;2.20;99.90;;;;;;5004838;28;20489;-80
2021/04/07 07:53:49;;;;;;;8.50;3.60;;;2.20;99.90;;;;;;4998541;28;20568;-81
2021/04/07 07:56:20;;;;;;;8.93;3.37;;;2.30;99.90;;;;;;5005886;28;20489;-80
2021/04/07 07:58:49;;;;;;;8.37;3.30;;;2.30;99.90;;;;;;5019897;28;20987;-80
2021/04/07 08:01:44;;;;;;;10.00;3.10;;;2.40;99.90;;;;;;5023413;28;20550;-80
2021/04/07 08:04:13;;;;;;;6.77;2.87;;;2.40;99.90;;;;;;5010503;28;20488;-79
2021/04/07 08:06:41;;;;;;;6.63;2.77;;;2.40;99.90;;;;;;5006113;28;20484;-81
2021/04/07 08:09:09;;;;;;;7.67;3.13;;;2.40;99.90;;;;;;5010381;28;20907;-81
2021/04/07 08:11:38;;;;;;;6.83;2.80;;;2.40;99.90;;;;;;5004828;28;20478;-80
2021/04/07 08:14:07;;;;;;;7.03;2.90;;;2.40;99.90;;;;;;5022497;28;20571;-81
2021/04/07 08:16:37;;;;;;;8.10;2.70;;;2.50;99.90;;;;;;5008424;28;20799;-80
2021/04/07 08:19:05;;;;;;;6.97;2.90;;;2.60;99.90;;;;;;5012935;28;20491;-80
2021/04/07 08:21:35;;;;;;;6.53;2.80;;;2.60;99.90;;;;;;5001389;28;21478;-80
2021/04/07 08:24:06;;;;;;;7.90;2.70;;;2.70;99.90;;;;;;5002445;28;20478;-80
2021/04/07 08:26:37;;;;;;;7.53;2.73;;;2.70;99.90;;;;;;5004589;28;20479;-80
2021/04/07 08:29:06;;;;;;;5.70;3.00;;;2.80;99.90;;;;;;5000632;28;20475;-80
2021/04/07 08:31:35;;;;;;;5.37;2.60;;;2.80;99.90;;;;;;5009152;28;20473;-81
2021/04/07 08:34:05;;;;;;;5.97;2.90;;;2.90;99.90;;;;;;4998790;28;20593;-81
2021/04/07 08:36:33;;;;;;;4.03;2.53;;;3.00;99.90;;;;;;5007098;28;20538;-80
2021/04/07 08:39:04;;;;;;;3.93;2.70;;;3.10;99.90;;;;;;5007990;28;20930;-80
2021/04/07 08:41:33;;;;;;;5.53;2.90;;;3.20;99.90;;;;;;5022936;28;20971;-80
2021/04/07 08:44:04;;;;;;;3.77;2.30;;;3.30;99.90;;;;;;5001446;28;20500;-81
2021/04/07 08:46:42;;;;;;;5.90;2.60;;;3.30;99.90;;;;;;5007559;28;20483;-80
2021/04/07 08:49:33;;;;;;;4.23;2.50;;;3.30;99.90;;;;;;5011342;28;20476;-80
2021/04/07 08:52:15;;;;;;;4.90;2.50;;;3.30;99.90;;;;;;5002204;28;20476;-80
2021/04/07 08:54:45;;;;;;;3.73;2.30;;;3.30;99.90;;;;;;5002983;28;20673;-80
2021/04/07 08:57:31;;;;;;;4.63;2.63;;;3.30;99.90;;;;;;5002932;28;20505;-79
2021/04/07 09:00:01;;;;;;;4.83;2.57;;;3.30;99.90;;;;;;5007312;28;20485;-80
2021/04/07 09:02:30;;;;;;;5.37;2.50;;;3.30;99.90;;;;;;5007664;28;20550;-81
2021/04/07 09:05:08;;;;;;;4.53;2.40;;;3.40;99.90;;;;;;5002114;28;20473;-79
2021/04/07 09:07:41;;;;;;;4.70;2.00;;;3.40;99.90;;;;;;5004655;28;20895;-80
2021/04/07 09:10:16;;;;;;;3.77;2.43;;;3.50;99.90;;;;;;5001831;28;20486;-80
2021/04/07 09:12:47;;;;;;;3.97;2.43;;;3.50;99.90;;;;;;4997064;28;20573;-80
2021/04/07 09:15:21;;;;;;;4.93;2.20;;;3.50;99.90;;;;;;5007273;28;21017;-79
2021/04/07 09:17:52;;;;;;;3.40;2.40;;;3.50;99.90;;;;;;4988999;28;20543;-79
2021/04/07 09:20:37;;;;;;;4.00;2.23;;;3.60;99.90;;;;;;4991280;28;20490;-80
2021/04/07 09:23:16;;;;;;;3.47;2.40;;;3.70;99.90;;;;;;5001660;28;20491;-80
2021/04/07 09:25:51;;;;;;;4.37;2.23;;;3.90;99.90;;;;;;5003058;28;21008;-81
2021/04/07 09:28:31;;;;;;;2.30;1.90;;;4.00;99.90;;;;;;5007831;28;20480;-80
2021/04/07 09:31:11;;;;;;;3.20;2.43;;;4.00;99.90;;;;;;5009980;28;20490;-80
2021/04/07 09:33:41;;;;;;;2.10;1.90;;;4.10;99.90;;;;;;4989475;28;20572;-80
2021/04/07 09:36:09;;;;;;;5.23;2.33;;;4.10;99.90;;;;;;4989892;28;20563;-81
2021/04/07 09:38:45;;;;;;;5.23;2.50;;;4.20;99.90;;;;;;4989751;28;20569;-80
2021/04/07 09:41:18;;;;;;;4.87;2.50;;;4.30;99.90;;;;;;4988803;28;20862;-81
2021/04/07 09:43:45;;;;;;;5.10;2.50;;;4.40;99.90;;;;;;5019317;28;20433;-79
2021/04/07 09:46:13;;;;;;;3.90;2.20;;;4.50;99.90;;;;;;5027988;28;20262;-81
2021/04/07 09:48:47;;;;;;;17.67;3.37;;;4.80;99.90;;;;;;5037988;28;20475;-79
2021/04/07 09:51:21;;;;;;;8.13;2.63;;;4.90;99.90;;;;;;5008014;28;21065;-79
2021/04/07 09:54:22;;;;;;;8.77;2.37;;;5.00;99.90;;;;;;5010741;28;20489;-81
2021/04/07 09:57:00;;;;;;;3.20;2.00;;;5.10;99.90;;;;;;4990721;28;20753;-79
2021/04/07 09:59:34;;;;;;;3.37;2.40;;;5.30;99.90;;;;;;4990136;28;20923;-79
2021/04/07 10:02:01;;;;;;;4.13;2.30;;;5.50;99.90;;;;;;4986068;28;20483;-79
2021/04/07 10:04:30;;;;;;;2.83;1.70;;;5.70;99.90;;;;;;4999435;28;20298;-79
2021/04/07 10:07:09;;;;;;;4.33;1.80;;;5.80;99.90;;;;;;5024047;28;20244;-79
2021/04/07 10:09:57;;;;;;;3.04;1.85;;;5.80;99.90;;;;;;4159214;28;10002624;-81
2021/04/07 10:12:27;;;;;;;3.97;2.15;;;5.70;99.90;;;;;;2416740;28;10001871;-79
2021/04/07 10:14:55;;;;;;;3.73;2.03;;;5.70;99.90;;;;;;5006853;28;20319;-80
2021/04/07 10:17:26;;;;;;;4.57;2.33;;;5.60;99.90;;;;;;5007381;28;20491;-79
2021/04/07 10:19:53;;;;;;;3.43;2.40;;;5.50;99.90;;;;;;5002887;28;20472;-79
2021/04/07 10:22:22;;;;;;;4.63;2.40;;;5.50;99.90;;;;;;5003339;28;20574;-81
2021/04/07 10:24:50;;;;;;;4.77;2.47;;;5.40;99.90;;;;;;5009355;28;20503;-80
2021/04/07 10:27:19;;;;;;;3.40;2.10;;;5.40;99.90;;;;;;5011917;28;20512;-81
2021/04/07 10:29:48;;;;;;;3.10;2.23;;;5.40;99.90;;;;;;5000907;28;20534;-79
2021/04/07 10:32:17;;;;;;;4.10;2.20;;;5.50;99.90;;;;;;5009649;28;20883;-79
2021/04/07 10:34:46;;;;;;;5.63;2.73;;;5.50;99.90;;;;;;5014193;28;20470;-79
2021/04/07 10:37:17;;;;;;;4.13;2.50;;;5.70;99.90;;;;;;5011043;28;20541;-80
2021/04/07 10:39:45;;;;;;;4.20;2.30;;;5.80;99.90;;;;;;5013055;28;20487;-79
2021/04/07 10:42:18;;;;;;;3.60;2.23;;;5.90;99.90;;;;;;5011740;28;20479;-79
2021/04/07 10:44:57;;;;;;;5.03;2.50;;;5.90;99.90;;;;;;5011901;28;20991;-79
2021/04/07 10:47:26;;;;;;;4.63;2.50;;;5.90;99.90;;;;;;5012053;28;20482;-80
2021/04/07 10:49:55;;;;;;;4.30;2.53;;;5.90;99.90;;;;;;5010315;28;20483;-80
2021/04/07 10:52:36;;;;;;;8.83;2.80;;;5.80;99.90;;;;;;5010650;28;20734;-80
2021/04/07 10:55:09;;;;;;;6.23;2.23;;;5.70;99.90;;;;;;5011264;28;20240;-80
2021/04/07 10:57:39;;;;;;;9.73;2.40;;;5.70;99.90;;;;;;5010228;28;20564;-80
2021/04/07 11:00:11;;;;;;;5.23;2.47;;;5.60;99.90;;;;;;5009466;28;20245;-79
2021/04/07 11:02:47;;;;;;;4.57;2.03;;;5.60;99.90;;;;;;4993477;28;20486;-80
2021/04/07 11:05:19;;;;;;;5.73;2.60;;;5.70;99.90;;;;;;5012318;28;20475;-79
2021/04/07 11:07:47;;;;;;;5.33;2.20;;;5.70;99.90;;;;;;5009658;28;21059;-80
2021/04/07 11:10:16;;;;;;;4.80;2.40;;;5.70;99.90;;;;;;5010131;28;20483;-79
2021/04/07 11:12:45;;;;;;;3.87;1.83;;;5.70;99.90;;;;;;5010854;28;20332;-81
2021/04/07 11:15:15;;;;;;;3.27;1.80;;;5.60;99.90;;;;;;5026233;28;20609;-80
2021/04/07 11:17:53;;;;;;;3.40;1.83;;;5.70;99.90;;;;;;5006107;28;20515;-81
2021/04/07 11:20:21;;;;;;;2.30;1.80;;;5.80;99.90;;;;;;5001933;28;20243;-82
2021/04/07 11:22:49;;;;;;;2.33;1.40;;;5.90;99.90;;;;;;5011139;28;20628;-82
2021/04/07 11:25:17;;;;;;;2.97;2.00;;;6.00;99.90;;;;;;5011039;28;20956;-81
2021/04/07 11:27:45;;;;;;;3.03;1.50;;;6.00;99.90;;;;;;5010730;28;20273;-80
2021/04/07 11:30:15;;;;;;;2.50;1.60;;;6.00;99.90;;;;;;5009772;28;20719;-81
2021/04/07 11:32:45;;;;;;;4.13;1.80;;;5.90;99.90;;;;;;5010189;28;20245;-82
2021/04/07 11:35:37;;;;;;;4.20;2.30;;;5.80;99.90;;;;;;5022148;28;20263;-82
2021/04/07 11:38:06;;;;;;;4.50;1.93;;;5.80;99.90;;;;;;5006582;28;20555;-80
2021/04/07 11:40:59;;;;;;;6.60;2.30;;;5.80;99.90;;;;;;4990791;28;20452;-80
2021/04/07 11:43:29;;;;;;;3.93;2.27;;;5.70;99.90;;;;;;4993286;28;20489;-81
2021/04/07 11:45:57;;;;;;;7.13;2.53;;;5.50;99.90;;;;;;4998285;28;20302;-81
2021/04/07 11:48:41;;;;;;;3.80;1.83;;;5.40;99.90;;;;;;5010266;28;20918;-80
2021/04/07 11:51:11;;;;;;;3.27;1.50;;;5.30;99.90;;;;;;5010339;28;20270;-80
2021/04/07 11:53:40;;;;;;;4.80;1.40;;;5.30;99.90;;;;;;5008580;28;20490;-80
2021/04/07 11:56:08;;;;;;;3.70;1.20;;;5.40;99.90;;;;;;4998943;28;20288;-80
2021/04/07 11:58:35;;;;;;;3.00;0.83;;;5.60;99.90;;;;;;5008365;28;20471;-81
2021/04/07 12:01:05;;;;;;;3.30;0.70;;;6.00;99.90;;;;;;5005427;28;20335;-80
2021/04/07 12:03:34;;;;;;;6.23;1.00;;;6.40;99.90;;;;;;5010063;28;20244;-80
2021/04/07 12:06:02;;;;;;;4.67;1.00;;;6.50;99.90;;;;;;5014402;28;20643;-81
2021/04/07 12:08:29;;;;;;;4.67;1.10;;;6.80;99.90;;;;;;5012380;28;20476;-80
2021/04/07 12:10:59;;;;;;;4.87;1.10;;;6.90;99.90;;;;;;5004463;28;20624;-80
2021/04/07 12:13:27;;;;;;;7.77;1.67;;;7.10;99.90;;;;;;5006367;28;20754;-80
2021/04/07 12:15:55;;;;;;;10.03;1.93;;;7.50;99.90;;;;;;5007161;28;20256;-81
2021/04/07 12:18:24;;;;;;;7.23;1.33;;;7.30;99.90;;;;;;5002354;28;20248;-82
2021/04/07 12:20:52;;;;;;;9.30;1.50;;;6.90;99.90;;;;;;5004924;28;20629;-80
2021/04/07 12:23:20;;;;;;;5.47;1.50;;;6.40;99.90;;;;;;5003808;28;20651;-81
2021/04/07 12:25:47;;;;;;;8.97;1.83;;;6.10;99.90;;;;;;5001670;28;20790;-81
2021/04/07 12:28:15;;;;;;;13.63;1.93;;;6.00;99.90;;;;;;5006990;28;20244;-80
2021/04/07 12:30:49;;;;;;;13.40;2.10;;;5.90;99.90;;;;;;5003802;28;20237;-80
2021/04/07 12:33:19;;;;;;;16.83;3.60;;;6.00;99.90;;;;;;5005054;28;20279;-80
2021/04/07 12:35:49;;;;;;;16.33;2.70;;;6.10;99.90;;;;;;5008025;28;20252;-80
2021/04/07 12:38:17;;;;;;;9.70;2.37;;;6.50;99.90;;;;;;5006820;28;20291;-80
2021/04/07 12:40:46;;;;;;;9.67;2.47;;;6.70;99.90;;;;;;5007665;28;20801;-82
2021/04/07 12:43:13;;;;;;;10.03;2.00;;;6.60;99.90;;;;;;5026435;28;20585;-80
2021/04/07 12:45:41;;;;;;;12.23;2.10;;;6.30;99.90;;;;;;5001831;28;20340;-80
2021/04/07 12:48:09;;;;;;;8.83;2.17;;;6.40;99.90;;;;;;5004456;28;20248;-81
2021/04/07 12:50:37;;;;;;;13.37;2.40;;;6.70;99.90;;;;;;5008972;28;20233;-80
2021/04/07 12:53:06;;;;;;;17.07;2.63;;;6.90;99.90;;;;;;5027438;28;20588;-81
2021/04/07 12:55:34;;;;;;;14.67;2.70;;;7.00;99.90;;;;;;5006070;28;20316;-80
2021/04/07 12:58:02;;;;;;;7.13;1.37;;;6.90;99.90;;;;;;5010760;28;20245;-80
2021/04/07 13:00:30;;;;;;;5.43;1.10;;;6.40;99.90;;;;;;5006042;28;20573;-80
2021/04/07 13:02:58;;;;;;;5.80;1.40;;;6.00;99.90;;;;;;5011127;28;20292;-81
2021/04/07 13:05:25;;;;;;;7.67;1.50;;;6.00;99.90;;;;;;5012508;28;20257;-80